Time;durP1;ratioP1;P1;durP2;ratioP2;P2;SDS_P1;SDS_P2;PMS_P1;PMS_P2;Temp;Humidity;BMP_temperature;BMP_pressure;BME280_temperature;BME280_humidity;BME280_pressure;Samples;Min_cycle;Max_cycle;Signal;HPM_P1;HPM_P2
2023/10/03 00:00:33;;;;;;;8.90;4.88;;;20.30;92.60;;;;;;5016404;28;20117;-87
2023/10/03 00:03:00;;;;;;;8.73;5.03;;;20.30;92.40;;;;;;5033955;28;20021;-87
2023/10/03 00:05:33;;;;;;;8.93;5.10;;;20.30;92.30;;;;;;5016257;28;20029;-87
2023/10/03 00:08:03;;;;;;;10.10;5.40;;;20.30;92.30;;;;;;5024533;28;20513;-87
2023/10/03 00:10:30;;;;;;;9.82;5.10;;;20.30;92.30;;;;;;5032029;28;20052;-87
2023/10/03 00:12:55;;;;;;;10.23;5.25;;;20.30;92.30;;;;;;5032339;28;20021;-87
2023/10/03 00:15:25;;;;;;;9.75;5.32;;;20.30;92.20;;;;;;5032611;28;20029;-87
2023/10/03 00:17:52;;;;;;;8.95;4.53;;;20.30;92.30;;;;;;5027215;28;20484;-87
2023/10/03 00:20:18;;;;;;;8.80;4.85;;;20.30;92.30;;;;;;5012852;28;20029;-87
2023/10/03 00:22:44;;;;;;;8.25;4.80;;;20.30;92.30;;;;;;5012279;28;20514;-87
2023/10/03 00:25:18;;;;;;;8.90;5.00;;;20.30;92.30;;;;;;5012577;28;20101;-87
2023/10/03 00:27:49;;;;;;;9.18;4.63;;;20.30;92.40;;;;;;5012813;28;20025;-87
2023/10/03 00:30:16;;;;;;;10.68;5.43;;;20.30;92.40;;;;;;5012943;28;20057;-87
2023/10/03 00:32:42;;;;;;;8.68;4.95;;;20.30;92.40;;;;;;5012557;28;20451;-87
2023/10/03 00:35:08;;;;;;;8.68;4.57;;;20.30;92.40;;;;;;5012459;28;20391;-86
2023/10/03 00:37:38;;;;;;;8.82;4.90;;;20.30;92.40;;;;;;5014012;28;20026;-87
2023/10/03 00:40:16;;;;;;;8.90;5.05;;;20.20;92.40;;;;;;5012755;28;20088;-87
2023/10/03 00:42:44;;;;;;;9.23;5.32;;;20.20;92.40;;;;;;5012136;28;20022;-87
2023/10/03 00:45:10;;;;;;;9.43;5.22;;;20.30;92.40;;;;;;5012423;28;20373;-87
2023/10/03 00:47:35;;;;;;;9.27;5.05;;;20.20;92.40;;;;;;5012311;28;20060;-87
2023/10/03 00:50:03;;;;;;;8.88;4.65;;;20.20;92.40;;;;;;5012309;28;20424;-87
2023/10/03 00:52:31;;;;;;;9.48;5.45;;;20.20;92.40;;;;;;5012172;28;20030;-87
2023/10/03 00:55:00;;;;;;;9.38;4.60;;;20.30;92.40;;;;;;5013615;28;20419;-87
2023/10/03 00:57:26;;;;;;;9.52;5.05;;;20.30;92.40;;;;;;5013599;28;20045;-87
2023/10/03 00:59:55;;;;;;;9.05;4.88;;;20.30;92.30;;;;;;5013859;28;20057;-87
2023/10/03 01:02:21;;;;;;;8.45;4.57;;;20.30;92.20;;;;;;5013137;28;20387;-87
2023/10/03 01:04:47;;;;;;;8.73;4.90;;;20.30;92.20;;;;;;5012127;28;20018;-87
2023/10/03 01:07:13;;;;;;;11.05;5.47;;;20.30;92.20;;;;;;5012170;28;20034;-88
2023/10/03 01:09:39;;;;;;;9.98;5.20;;;20.30;92.20;;;;;;5012272;28;20061;-88
2023/10/03 01:12:04;;;;;;;8.63;4.85;;;20.30;92.20;;;;;;5011659;28;20034;-86
2023/10/03 01:14:34;;;;;;;8.50;4.68;;;20.30;92.20;;;;;;5013329;28;20050;-87
2023/10/03 01:17:01;;;;;;;8.75;4.88;;;20.30;92.30;;;;;;5011958;28;20115;-87
2023/10/03 01:19:30;;;;;;;8.68;4.65;;;20.20;92.30;;;;;;5013439;28;20022;-87
2023/10/03 01:21:56;;;;;;;8.68;4.80;;;20.20;92.30;;;;;;5011652;28;20056;-88
2023/10/03 01:24:24;;;;;;;9.00;4.85;;;20.20;92.30;;;;;;5011697;28;20116;-88
2023/10/03 01:26:53;;;;;;;8.65;4.68;;;20.30;92.30;;;;;;5012080;28;20022;-88
2023/10/03 01:29:20;;;;;;;9.00;5.10;;;20.20;92.30;;;;;;5011882;28;20068;-88
2023/10/03 01:31:47;;;;;;;8.85;5.03;;;20.20;92.30;;;;;;5011915;28;20073;-88
2023/10/03 01:34:15;;;;;;;8.77;4.93;;;20.20;92.30;;;;;;5011566;28;20032;-87
2023/10/03 01:36:41;;;;;;;8.60;4.53;;;20.20;92.30;;;;;;5011879;28;20459;-87
2023/10/03 01:39:06;;;;;;;8.65;4.90;;;20.20;92.40;;;;;;5013056;28;20480;-87
2023/10/03 01:41:32;;;;;;;8.75;4.72;;;20.20;92.40;;;;;;5012052;28;20026;-87
2023/10/03 01:43:58;;;;;;;8.90;4.70;;;20.20;92.40;;;;;;5012866;28;20026;-87
2023/10/03 01:46:26;;;;;;;8.52;4.68;;;20.20;92.40;;;;;;5011632;28;20053;-88
2023/10/03 01:48:52;;;;;;;8.73;5.22;;;20.20;92.30;;;;;;5011531;28;20033;-88
2023/10/03 01:51:18;;;;;;;8.43;4.95;;;20.20;92.30;;;;;;5011843;28;20029;-87
2023/10/03 01:53:45;;;;;;;10.38;5.43;;;20.30;92.30;;;;;;5011296;28;20041;-87
2023/10/03 01:56:11;;;;;;;8.90;4.78;;;20.30;92.30;;;;;;5011525;28;20054;-87
2023/10/03 01:58:37;;;;;;;8.63;5.10;;;20.30;92.20;;;;;;5011420;28;20567;-87
2023/10/03 02:01:03;;;;;;;8.93;5.10;;;20.30;92.20;;;;;;5011999;28;20550;-87
2023/10/03 02:03:29;;;;;;;8.65;4.70;;;20.30;92.20;;;;;;5012428;28;20033;-87
2023/10/03 02:05:55;;;;;;;8.80;4.43;;;20.30;92.20;;;;;;5011542;28;20025;-87
2023/10/03 02:08:21;;;;;;;10.35;5.10;;;20.30;92.20;;;;;;5011412;28;20519;-87
2023/10/03 02:10:50;;;;;;;8.13;4.45;;;20.20;92.20;;;;;;5011384;28;20128;-87
2023/10/03 02:13:17;;;;;;;10.15;5.00;;;20.20;92.30;;;;;;5011160;28;20022;-86
2023/10/03 02:15:44;;;;;;;8.23;4.40;;;20.30;92.30;;;;;;5011468;28;20022;-87
2023/10/03 02:18:10;;;;;;;9.00;4.95;;;20.20;92.30;;;;;;5011654;28;20052;-87
2023/10/03 02:20:52;;;;;;;8.48;4.80;;;20.20;92.30;;;;;;5011357;28;20029;-87
2023/10/03 02:23:19;;;;;;;8.48;4.90;;;20.20;92.50;;;;;;5011031;28;20026;-88
2023/10/03 02:25:53;;;;;;;8.77;4.88;;;20.20;92.30;;;;;;5011173;28;20121;-87
2023/10/03 02:28:20;;;;;;;8.50;4.85;;;20.20;92.50;;;;;;5011254;28;20030;-87
2023/10/03 02:30:47;;;;;;;8.55;4.43;;;20.20;92.30;;;;;;5011171;28;20025;-87
2023/10/03 02:33:14;;;;;;;8.93;5.00;;;20.20;92.30;;;;;;5011166;28;20026;-87
2023/10/03 02:35:42;;;;;;;8.57;4.82;;;20.20;92.30;;;;;;5014155;28;20017;-87
2023/10/03 02:38:10;;;;;;;8.52;4.85;;;20.20;92.30;;;;;;5015008;28;20121;-87
2023/10/03 02:40:36;;;;;;;9.25;4.68;;;20.20;92.40;;;;;;5016067;28;20483;-87
2023/10/03 02:43:01;;;;;;;9.55;5.30;;;20.20;92.30;;;;;;5015679;28;20030;-87
2023/10/03 02:45:27;;;;;;;7.88;4.72;;;20.20;92.30;;;;;;5014686;28;20548;-88
2023/10/03 02:48:03;;;;;;;8.48;4.88;;;20.20;92.30;;;;;;5012383;28;20376;-87
2023/10/03 02:50:29;;;;;;;9.18;4.97;;;20.20;92.30;;;;;;5014518;28;20053;-87
2023/10/03 02:52:59;;;;;;;9.18;5.25;;;20.20;92.20;;;;;;5013929;28;20025;-87
2023/10/03 02:55:24;;;;;;;9.13;5.30;;;20.30;92.10;;;;;;5014435;28;20022;-88
2023/10/03 02:57:50;;;;;;;9.10;5.07;;;20.20;92.00;;;;;;5015808;28;20522;-87
2023/10/03 03:00:16;;;;;;;8.90;5.13;;;20.20;92.10;;;;;;5015675;28;20033;-88
2023/10/03 03:02:47;;;;;;;8.98;4.95;;;20.20;92.10;;;;;;5013827;28;20025;-87
2023/10/03 03:05:16;;;;;;;8.23;4.88;;;20.20;92.40;;;;;;5014460;28;20022;-88
2023/10/03 03:07:46;;;;;;;9.13;4.80;;;20.20;92.10;;;;;;5014142;28;20040;-88
2023/10/03 03:10:14;;;;;;;9.77;5.32;;;20.20;92.10;;;;;;5014078;28;20049;-87
2023/10/03 03:12:44;;;;;;;8.48;4.78;;;20.20;92.20;;;;;;5013929;28;20095;-87
2023/10/03 03:15:21;;;;;;;9.27;4.93;;;20.20;92.20;;;;;;5014203;28;20117;-87
2023/10/03 03:17:53;;;;;;;8.25;4.85;;;20.20;92.20;;;;;;5015314;28;20025;-87
2023/10/03 03:20:25;;;;;;;;;;;20.10;92.20;;;;;;5014382;28;20025;-87
2023/10/03 03:22:51;;;;;;;8.85;4.70;;;20.20;92.20;;;;;;5013727;28;20422;-87
2023/10/03 03:28:02;;;;;;;9.18;4.80;;;20.20;92.30;;;;;;5015414;28;20028;-87
2023/10/03 03:32:54;;;;;;;9.48;5.20;;;20.10;92.10;;;;;;5014891;28;20037;-87
2023/10/03 03:35:24;;;;;;;9.80;5.35;;;20.10;92.20;;;;;;5013901;28;20049;-87
2023/10/03 03:37:55;;;;;;;9.10;5.30;;;20.10;92.10;;;;;;5013539;28;20025;-87
2023/10/03 03:40:29;;;;;;;9.55;5.63;;;20.20;92.00;;;;;;5013564;28;20025;-87
2023/10/03 03:42:58;;;;;;;8.90;5.15;;;20.20;92.20;;;;;;5013284;28;20030;-87
2023/10/03 03:45:26;;;;;;;9.68;4.97;;;20.20;92.10;;;;;;5013496;28;20026;-87
2023/10/03 03:47:55;;;;;;;10.32;5.55;;;20.20;92.10;;;;;;5013483;28;20108;-87
2023/10/03 03:50:24;;;;;;;9.48;5.03;;;20.20;92.00;;;;;;5013596;28;20022;-87
2023/10/03 03:52:51;;;;;;;9.68;5.35;;;20.20;92.00;;;;;;5014458;28;20091;-88
2023/10/03 03:55:17;;;;;;;9.32;5.05;;;20.20;92.00;;;;;;5013486;28;20029;-87
2023/10/03 03:57:45;;;;;;;9.18;4.82;;;20.20;92.00;;;;;;5013404;28;20022;-87
2023/10/03 04:00:13;;;;;;;9.27;5.30;;;20.20;92.00;;;;;;5013240;28;20022;-87
2023/10/03 04:02:39;;;;;;;9.27;4.82;;;20.20;91.90;;;;;;5012967;28;20022;-87
2023/10/03 04:05:07;;;;;;;9.38;5.10;;;20.20;92.00;;;;;;5013107;28;20029;-87
2023/10/03 04:07:34;;;;;;;10.13;5.18;;;20.20;92.00;;;;;;5014479;28;20033;-88
2023/10/03 04:10:00;;;;;;;11.65;5.53;;;20.20;91.90;;;;;;4996775;28;20033;-87
2023/10/03 04:12:26;;;;;;;9.38;5.38;;;20.10;92.00;;;;;;4996276;28;20026;-87
2023/10/03 04:14:52;;;;;;;10.30;5.65;;;20.20;92.10;;;;;;4996604;28;20022;-87
2023/10/03 04:17:18;;;;;;;9.48;4.90;;;20.10;92.00;;;;;;4996618;28;20029;-87
2023/10/03 04:19:45;;;;;;;10.80;4.93;;;20.20;92.00;;;;;;4996691;28;20029;-87
2023/10/03 04:22:10;;;;;;;10.43;5.10;;;20.10;92.00;;;;;;4996227;28;20026;-86
2023/10/03 04:24:36;;;;;;;8.55;4.60;;;20.20;92.10;;;;;;4996764;28;20495;-87
2023/10/03 04:27:01;;;;;;;9.13;4.93;;;20.10;92.00;;;;;;4996343;28;20026;-88
2023/10/03 04:29:27;;;;;;;9.20;5.38;;;20.10;92.00;;;;;;4996181;28;20033;-88
2023/10/03 04:31:53;;;;;;;9.93;5.45;;;20.10;92.10;;;;;;4996166;28;20053;-87
2023/10/03 04:34:20;;;;;;;10.30;5.53;;;20.10;92.00;;;;;;4996083;28;20484;-87
2023/10/03 04:36:47;;;;;;;9.77;5.00;;;20.10;92.00;;;;;;4996092;28;20033;-87
2023/10/03 04:39:13;;;;;;;10.10;5.15;;;20.20;92.00;;;;;;4996233;28;20022;-87
2023/10/03 04:41:43;;;;;;;10.73;5.85;;;20.20;92.00;;;;;;5013917;28;20495;-87
2023/10/03 04:44:14;;;;;;;9.80;5.47;;;20.20;91.90;;;;;;4995977;28;20053;-87
2023/10/03 04:46:39;;;;;;;9.50;5.13;;;20.20;91.70;;;;;;5013759;28;20541;-87
2023/10/03 04:49:07;;;;;;;9.50;5.00;;;20.20;91.70;;;;;;4992055;28;20034;-86
2023/10/03 04:51:33;;;;;;;10.00;5.10;;;20.20;91.80;;;;;;4995284;28;20036;-86
2023/10/03 04:53:58;;;;;;;9.63;5.07;;;20.20;91.90;;;;;;4995601;28;20022;-87
2023/10/03 04:56:24;;;;;;;8.90;4.88;;;20.20;92.00;;;;;;4995543;28;20037;-87
2023/10/03 04:58:49;;;;;;;9.07;4.80;;;20.20;92.00;;;;;;5013523;28;20049;-87
2023/10/03 05:01:15;;;;;;;9.60;5.25;;;20.20;92.00;;;;;;4995978;28;20036;-87
2023/10/03 05:03:41;;;;;;;11.70;6.07;;;20.20;92.10;;;;;;4995583;28;20028;-87
2023/10/03 05:06:06;;;;;;;9.73;5.20;;;20.10;92.10;;;;;;4995857;28;20454;-87
2023/10/03 05:08:32;;;;;;;9.85;5.13;;;20.10;92.10;;;;;;5008295;28;20041;-87
2023/10/03 05:11:02;;;;;;;10.02;5.60;;;20.10;92.10;;;;;;5011875;28;20030;-87
2023/10/03 05:13:28;;;;;;;9.68;5.38;;;20.10;92.10;;;;;;5012028;28;20017;-87
2023/10/03 05:15:54;;;;;;;10.23;5.68;;;20.10;92.10;;;;;;5012038;28;20180;-87
2023/10/03 05:18:19;;;;;;;9.23;5.28;;;20.10;92.10;;;;;;5012026;28;20054;-87
2023/10/03 05:20:45;;;;;;;9.52;5.18;;;20.10;92.10;;;;;;5012202;28;20057;-87
2023/10/03 05:23:14;;;;;;;9.30;5.13;;;20.10;92.20;;;;;;5011818;28;20492;-87
2023/10/03 05:25:42;;;;;;;9.20;4.97;;;20.10;92.20;;;;;;5011988;28;20026;-87
2023/10/03 05:28:11;;;;;;;10.05;5.95;;;20.10;92.20;;;;;;5011833;28;20464;-87
2023/10/03 05:30:38;;;;;;;11.18;5.82;;;20.10;92.10;;;;;;5011790;28;20023;-87
2023/10/03 05:33:07;;;;;;;10.57;5.80;;;20.10;92.00;;;;;;5011593;28;20032;-87
2023/10/03 05:35:33;;;;;;;10.43;5.68;;;20.10;92.00;;;;;;5011862;28;20022;-87
2023/10/03 05:37:59;;;;;;;10.30;5.60;;;20.10;91.90;;;;;;5011932;28;20053;-87
2023/10/03 05:40:24;;;;;;;11.35;6.10;;;20.20;91.90;;;;;;5012016;28;20022;-87
2023/10/03 05:42:50;;;;;;;10.25;5.63;;;20.20;91.90;;;;;;5011638;28;20026;-87
2023/10/03 05:45:17;;;;;;;9.95;5.72;;;20.10;91.90;;;;;;5012987;28;20026;-87
2023/10/03 05:47:47;;;;;;;10.05;5.45;;;20.20;92.00;;;;;;5012094;28;20032;-87
2023/10/03 05:50:15;;;;;;;9.67;5.50;;;20.10;92.00;;;;;;5011759;28;20030;-87
2023/10/03 05:52:43;;;;;;;10.10;5.43;;;20.10;92.00;;;;;;5011624;28;20308;-87
2023/10/03 05:55:09;;;;;;;9.85;5.40;;;20.10;92.10;;;;;;5011823;28;20029;-86
2023/10/03 05:57:37;;;;;;;13.10;6.13;;;20.10;92.10;;;;;;5011623;28;20026;-87
2023/10/03 06:00:04;;;;;;;10.55;5.80;;;20.10;92.10;;;;;;5011680;28;20022;-87
2023/10/03 06:02:29;;;;;;;10.57;6.05;;;20.10;92.10;;;;;;5011423;28;20451;-87
2023/10/03 06:04:55;;;;;;;11.13;6.07;;;20.10;92.20;;;;;;5012846;28;20026;-87
2023/10/03 06:07:20;;;;;;;10.98;5.80;;;20.10;92.10;;;;;;5011357;28;20030;-87
2023/10/03 06:09:46;;;;;;;11.00;6.13;;;20.10;92.10;;;;;;5014323;28;20036;-87
2023/10/03 06:12:11;;;;;;;9.90;5.30;;;20.10;92.10;;;;;;5014819;28;20030;-86
2023/10/03 06:14:39;;;;;;;10.68;5.65;;;20.10;92.10;;;;;;5016512;28;20484;-87
2023/10/03 06:17:07;;;;;;;10.25;5.72;;;20.10;92.10;;;;;;5015230;28;20030;-87
2023/10/03 06:19:33;;;;;;;10.52;5.72;;;20.10;92.20;;;;;;5016014;28;20018;-87
2023/10/03 06:21:58;;;;;;;10.68;5.88;;;20.10;92.10;;;;;;5014818;28;20552;-87
2023/10/03 06:24:26;;;;;;;11.10;5.82;;;20.10;92.20;;;;;;5014775;28;20041;-87
2023/10/03 06:26:51;;;;;;;9.95;5.72;;;20.10;92.10;;;;;;5014814;28;20022;-87
2023/10/03 06:29:17;;;;;;;10.80;6.05;;;20.10;92.10;;;;;;5015251;28;20574;-88
2023/10/03 06:31:44;;;;;;;11.35;6.18;;;20.10;92.10;;;;;;5014662;28;20038;-87
2023/10/03 06:34:09;;;;;;;11.30;6.30;;;20.10;92.10;;;;;;5014717;28;20109;-87
2023/10/03 06:36:38;;;;;;;9.85;5.35;;;20.10;91.90;;;;;;5014464;28;20057;-86
2023/10/03 06:39:04;;;;;;;10.25;5.85;;;20.10;91.90;;;;;;5014156;28;20077;-87
2023/10/03 06:41:30;;;;;;;11.18;6.25;;;20.10;91.90;;;;;;5004595;28;20065;-88
2023/10/03 06:43:55;;;;;;;10.82;5.65;;;20.20;91.90;;;;;;5003061;28;20038;-88
2023/10/03 06:46:21;;;;;;;12.25;6.85;;;20.10;91.90;;;;;;5003223;28;20488;-88
2023/10/03 06:48:46;;;;;;;11.50;6.13;;;20.20;91.90;;;;;;5007372;28;20029;-88
2023/10/03 06:51:12;;;;;;;12.35;6.20;;;20.20;91.90;;;;;;5010785;28;20033;-88
2023/10/03 06:53:38;;;;;;;10.32;5.60;;;20.10;91.90;;;;;;5014353;28;20288;-87
2023/10/03 06:56:04;;;;;;;10.25;5.70;;;20.00;91.90;;;;;;5009758;28;20121;-88
2023/10/03 06:58:30;;;;;;;10.68;6.03;;;20.10;91.90;;;;;;5012319;28;20149;-88
2023/10/03 07:00:56;;;;;;;11.07;6.03;;;20.10;92.00;;;;;;5012059;28;20041;-88
2023/10/03 07:03:23;;;;;;;11.45;6.13;;;20.10;92.00;;;;;;5011359;28;20030;-89
2023/10/03 07:05:49;;;;;;;13.35;6.78;;;20.10;92.00;;;;;;5007648;28;20034;-87
2023/10/03 07:08:14;;;;;;;10.82;6.10;;;20.20;92.00;;;;;;5008279;28;20185;-89
2023/10/03 07:10:42;;;;;;;11.25;6.15;;;20.20;92.30;;;;;;5006812;28;20512;-85
2023/10/03 07:13:08;;;;;;;11.05;6.35;;;20.20;92.00;;;;;;4989375;28;20027;-83
2023/10/03 07:15:44;;;;;;;12.38;6.65;;;20.20;92.00;;;;;;4989065;28;20045;-87
2023/10/03 07:18:10;;;;;;;10.43;5.88;;;20.10;92.00;;;;;;5008886;28;20029;-86
2023/10/03 07:20:35;;;;;;;12.18;6.10;;;20.20;92.10;;;;;;5008078;28;20045;-86
2023/10/03 07:23:02;;;;;;;10.38;5.82;;;20.10;92.00;;;;;;5008511;28;20034;-87
2023/10/03 07:25:30;;;;;;;11.25;5.85;;;20.10;92.00;;;;;;5009446;28;20026;-87
2023/10/03 07:27:56;;;;;;;11.23;5.65;;;20.20;92.00;;;;;;5008697;28;20445;-85
2023/10/03 07:30:22;;;;;;;11.25;5.97;;;20.20;91.90;;;;;;5008515;28;20556;-86
2023/10/03 07:32:47;;;;;;;12.57;6.25;;;20.20;91.90;;;;;;5010122;28;20048;-88
2023/10/03 07:35:17;;;;;;;14.35;6.47;;;20.20;91.80;;;;;;5011975;28;20033;-87
2023/10/03 07:37:42;;;;;;;11.43;5.75;;;20.20;91.80;;;;;;5010207;28;20030;-87
2023/10/03 07:40:09;;;;;;;13.23;6.55;;;20.20;91.80;;;;;;5010088;28;20044;-88
2023/10/03 07:42:34;;;;;;;17.77;7.28;;;20.20;91.80;;;;;;5010178;28;20057;-87
2023/10/03 07:45:00;;;;;;;17.95;8.88;;;20.10;91.40;;;;;;5008681;28;20297;-87
2023/10/03 07:47:25;;;;;;;21.70;9.55;;;20.10;91.10;;;;;;5008559;28;20233;-87
2023/10/03 07:49:51;;;;;;;22.92;8.98;;;20.00;91.00;;;;;;5009034;28;20038;-87
2023/10/03 07:52:20;;;;;;;23.60;8.52;;;20.00;90.90;;;;;;5008782;28;20378;-87
2023/10/03 07:54:49;;;;;;;17.02;8.23;;;20.10;90.90;;;;;;5009138;28;20325;-87
2023/10/03 07:57:15;;;;;;;19.17;8.88;;;20.00;90.80;;;;;;5008462;28;20030;-87
2023/10/03 07:59:53;;;;;;;;;;;;;;;;;;;;;
2023/10/03 08:02:32;;;;;;;21.23;8.73;;;19.80;90.90;;;;;;4967042;28;20547;-87
2023/10/03 08:05:00;;;;;;;23.98;9.32;;;20.00;91.00;;;;;;5009642;28;20084;-87
2023/10/03 08:07:27;;;;;;;17.48;8.35;;;20.30;91.10;;;;;;5009204;28;20041;-88
2023/10/03 08:10:17;;;;;;;24.73;9.57;;;20.60;91.10;;;;;;5011992;28;20053;-90
2023/10/03 08:12:52;;;;;;;28.77;9.82;;;19.90;90.90;;;;;;5010910;28;20396;-87
2023/10/03 08:15:19;;;;;;;34.97;9.27;;;20.00;91.00;;;;;;5012931;28;20510;-88
2023/10/03 08:17:57;;;;;;;39.05;9.88;;;20.20;91.10;;;;;;5012597;28;20030;-88
2023/10/03 08:20:29;;;;;;;37.05;10.20;;;20.10;91.00;;;;;;5012447;28;20036;-88
2023/10/03 08:22:55;;;;;;;30.33;8.88;;;20.10;91.00;;;;;;5011165;28;20030;-87
2023/10/03 08:25:25;;;;;;;25.60;9.85;;;20.20;91.00;;;;;;5011485;28;20036;-86
2023/10/03 08:28:09;;;;;;;26.95;9.48;;;19.90;90.90;;;;;;5011371;28;20403;-86
2023/10/03 08:30:35;;;;;;;32.83;9.60;;;20.10;90.90;;;;;;5011667;28;20041;-87
2023/10/03 08:33:07;;;;;;;21.27;8.80;;;20.10;90.90;;;;;;5010699;28;20037;-87
2023/10/03 08:35:35;;;;;;;19.67;9.95;;;20.00;91.00;;;;;;5012359;28;20483;-86
2023/10/03 08:38:14;;;;;;;20.45;8.52;;;19.80;90.90;;;;;;5008959;28;20032;-87
2023/10/03 08:40:42;;;;;;;19.23;8.70;;;20.40;91.10;;;;;;5009195;28;20491;-88
2023/10/03 08:43:09;;;;;;;21.25;8.98;;;19.90;91.10;;;;;;5011646;28;20025;-87
2023/10/03 08:45:52;;;;;;;16.63;8.27;;;20.00;91.20;;;;;;5011979;28;20603;-86
2023/10/03 08:48:43;;;;;;;18.27;8.98;;;19.90;91.20;;;;;;5010017;28;20518;-88
2023/10/03 08:51:20;;;;;;;17.48;8.90;;;19.90;91.30;;;;;;5008592;28;20033;-88
2023/10/03 08:53:48;;;;;;;18.35;8.57;;;19.90;91.30;;;;;;5010036;28;20485;-86
2023/10/03 08:56:18;;;;;;;17.90;9.07;;;19.70;91.30;;;;;;5010083;28;20494;-86
2023/10/03 08:58:48;;;;;;;16.98;8.02;;;20.00;91.40;;;;;;5011456;28;20044;-88
2023/10/03 09:05:24;;;;;;;14.20;7.18;;;19.80;91.30;;;;;;5009712;28;20505;-87
2023/10/03 09:08:30;;;;;;;13.50;7.68;;;19.80;91.30;;;;;;4990446;28;20038;-89
2023/10/03 09:18:00;;;;;;;14.80;7.22;;;19.90;91.30;;;;;;5006793;28;20029;-87
2023/10/03 09:20:34;;;;;;;12.63;7.05;;;20.10;91.30;;;;;;5010708;28;20038;-86
2023/10/03 09:23:14;;;;;;;13.73;7.22;;;20.00;91.20;;;;;;4989858;28;20027;-86
2023/10/03 09:25:58;;;;;;;12.77;6.95;;;19.40;91.00;;;;;;5000083;28;20048;-87
2023/10/03 09:28:35;;;;;;;15.65;7.13;;;20.00;91.00;;;;;;5009521;28;20034;-88
2023/10/03 09:31:10;;;;;;;14.25;5.85;;;20.90;91.10;;;;;;5008901;28;20041;-87
2023/10/03 09:33:47;;;;;;;13.02;5.95;;;19.80;90.70;;;;;;5008992;28;20057;-89
2023/10/03 09:36:28;;;;;;;12.65;5.50;;;19.90;90.60;;;;;;5009006;28;20093;-86
2023/10/03 09:39:02;;;;;;;;;;;20.80;90.80;;;;;;5010602;28;20033;-88
2023/10/03 09:41:31;;;;;;;11.63;5.15;;;19.90;90.50;;;;;;5009428;28;19909;-89
2023/10/03 09:53:56;;;;;;;8.57;4.80;;;19.70;90.60;;;;;;4963439;28;20058;-86
2023/10/03 09:56:57;;;;;;;11.88;4.70;;;20.60;91.00;;;;;;4971455;28;20027;-87
2023/10/03 09:59:35;;;;;;;9.40;4.47;;;19.80;91.00;;;;;;4966045;28;20034;-87
2023/10/03 10:02:02;;;;;;;15.57;4.90;;;19.80;91.10;;;;;;4970660;28;20125;-84
2023/10/03 10:04:42;;;;;;;11.82;5.18;;;19.70;91.20;;;;;;4959573;28;20517;-87
2023/10/03 10:10:20;;;;;;;;;;;20.30;91.50;;;;;;4970888;28;20070;-87
2023/10/03 10:13:12;;;;;;;10.63;4.63;;;19.80;91.50;;;;;;4970068;28;20350;-87
2023/10/03 10:16:00;;;;;;;10.10;4.65;;;19.80;91.50;;;;;;4978244;28;20035;-87
2023/10/03 10:18:44;;;;;;;8.38;4.70;;;20.00;91.60;;;;;;4991255;28;20045;-87
2023/10/03 10:21:39;;;;;;;9.73;4.68;;;20.10;91.70;;;;;;4991643;28;20034;-86
2023/10/03 10:24:11;;;;;;;9.43;4.60;;;19.90;91.60;;;;;;4991132;28;20042;-86
2023/10/03 10:26:38;;;;;;;9.32;4.50;;;19.80;91.50;;;;;;4991502;28;20022;-85
2023/10/03 10:29:08;;;;;;;8.13;4.57;;;20.00;91.60;;;;;;4991322;28;20035;-86
2023/10/03 10:31:57;;;;;;;9.27;4.47;;;20.00;91.60;;;;;;4991243;28;20031;-85
2023/10/03 10:34:40;;;;;;;10.68;4.60;;;19.90;91.70;;;;;;5013976;28;20018;-87
2023/10/03 10:37:10;;;;;;;9.57;4.93;;;20.00;91.80;;;;;;5014295;28;20037;-87
2023/10/03 10:39:54;;;;;;;8.63;4.43;;;19.80;91.80;;;;;;5014096;28;20022;-87
2023/10/03 10:42:26;;;;;;;10.05;4.63;;;19.90;91.90;;;;;;5013742;28;20026;-87
2023/10/03 10:45:04;;;;;;;8.13;4.68;;;19.80;91.90;;;;;;5014839;28;20025;-87
2023/10/03 10:47:43;;;;;;;9.85;4.95;;;19.80;91.90;;;;;;5012254;28;20401;-87
2023/10/03 10:50:09;;;;;;;8.43;4.65;;;19.80;92.00;;;;;;5008499;28;20030;-86
2023/10/03 10:52:56;;;;;;;7.50;4.53;;;19.80;92.00;;;;;;5012943;28;20025;-85
2023/10/03 10:55:25;;;;;;;8.75;4.22;;;19.80;92.00;;;;;;5012577;28;20080;-87
2023/10/03 10:58:22;;;;;;;8.98;4.80;;;19.80;92.00;;;;;;5013535;28;20101;-88
2023/10/03 11:00:57;;;;;;;8.35;4.97;;;19.80;92.00;;;;;;5005381;28;20096;-86
2023/10/03 11:03:23;;;;;;;10.20;4.80;;;19.80;92.00;;;;;;5013427;28;20052;-86
2023/10/03 11:05:55;;;;;;;9.60;4.80;;;19.80;92.00;;;;;;5013607;28;20029;-87
2023/10/03 11:08:21;;;;;;;7.68;4.50;;;19.80;92.00;;;;;;5011924;28;20076;-84
2023/10/03 11:10:52;;;;;;;7.80;4.35;;;19.80;92.00;;;;;;5012843;28;20041;-86
2023/10/03 11:13:19;;;;;;;7.67;4.40;;;19.80;91.90;;;;;;5013149;28;20022;-85
2023/10/03 11:15:52;;;;;;;6.93;4.38;;;19.80;91.90;;;;;;5014780;28;20040;-87
2023/10/03 11:18:27;;;;;;;8.93;4.60;;;19.90;91.80;;;;;;5012741;28;20030;-86
2023/10/03 11:20:55;;;;;;;7.97;4.35;;;19.90;92.00;;;;;;5012620;28;20030;-87
2023/10/03 11:23:23;;;;;;;7.28;4.20;;;19.90;91.70;;;;;;5013027;28;20029;-87
2023/10/03 11:25:58;;;;;;;9.45;4.38;;;19.90;91.70;;;;;;5013665;28;20029;-87
2023/10/03 11:28:28;;;;;;;7.80;4.25;;;19.90;91.70;;;;;;5013932;28;20520;-87
2023/10/03 11:31:05;;;;;;;7.70;4.00;;;19.90;91.70;;;;;;5013860;28;20037;-87
2023/10/03 11:33:46;;;;;;;7.40;4.07;;;19.90;91.70;;;;;;5013546;28;20022;-88
2023/10/03 11:36:13;;;;;;;7.13;4.20;;;19.90;91.80;;;;;;5013368;28;20022;-88
2023/10/03 11:38:54;;;;;;;8.38;4.15;;;19.90;91.80;;;;;;5013570;28;20080;-89
2023/10/03 11:41:33;;;;;;;8.88;3.90;;;19.80;91.80;;;;;;5030015;28;20134;-88
2023/10/03 11:43:59;;;;;;;8.00;4.35;;;19.90;91.80;;;;;;5013358;28;20040;-87
2023/10/03 11:46:25;;;;;;;7.95;4.43;;;19.80;91.80;;;;;;5012791;28;20061;-87
2023/10/03 11:48:58;;;;;;;8.20;4.00;;;19.80;91.80;;;;;;5029246;28;20057;-88
2023/10/03 11:51:24;;;;;;;8.73;4.60;;;19.80;91.80;;;;;;5007698;28;20052;-88
2023/10/03 11:53:49;;;;;;;7.53;4.00;;;19.90;91.80;;;;;;4995797;28;20022;-87
2023/10/03 11:56:17;;;;;;;8.43;4.07;;;19.80;91.80;;;;;;4993410;28;20026;-86
2023/10/03 11:58:42;;;;;;;7.50;3.97;;;19.80;91.80;;;;;;5009769;28;20050;-88
2023/10/03 12:01:08;;;;;;;8.95;3.53;;;19.80;91.90;;;;;;5013118;28;20064;-84
2023/10/03 12:03:33;;;;;;;11.45;3.40;;;19.80;91.90;;;;;;5013640;28;20459;-88
2023/10/03 12:05:59;;;;;;;8.23;2.90;;;19.80;92.00;;;;;;5014247;28;20049;-83
2023/10/03 12:08:24;;;;;;;5.85;2.45;;;19.80;92.00;;;;;;5014093;28;20034;-84
2023/10/03 12:10:50;;;;;;;5.90;2.40;;;19.80;91.90;;;;;;5014017;28;20026;-85
2023/10/03 12:13:16;;;;;;;5.60;2.28;;;19.80;91.90;;;;;;4996369;28;20022;-84
2023/10/03 12:15:42;;;;;;;4.53;2.00;;;19.80;91.80;;;;;;5029686;28;20080;-88
2023/10/03 12:18:08;;;;;;;59.25;6.50;;;19.80;91.80;;;;;;5030001;28;20060;-91
2023/10/03 12:20:36;;;;;;;65.82;7.15;;;19.90;91.80;;;;;;5014188;28;20037;-90
2023/10/03 12:23:04;;;;;;;64.72;7.00;;;20.00;91.40;;;;;;5013152;28;20032;-87
2023/10/03 12:25:29;;;;;;;68.07;6.55;;;20.10;91.20;;;;;;5003259;28;20022;-85
2023/10/03 12:27:55;;;;;;;50.45;5.43;;;20.10;91.20;;;;;;4979915;28;20028;-86
2023/10/03 12:30:22;;;;;;;36.08;4.63;;;20.10;91.20;;;;;;4996510;28;20431;-85
2023/10/03 12:32:49;;;;;;;42.75;5.53;;;20.10;91.10;;;;;;4996545;28;20029;-86
2023/10/03 12:35:16;;;;;;;39.85;4.40;;;20.10;91.20;;;;;;4995833;28;20034;-87
2023/10/03 12:37:46;;;;;;;44.25;5.13;;;20.10;91.20;;;;;;5013105;28;20030;-87
2023/10/03 12:40:16;;;;;;;32.03;4.45;;;20.20;91.80;;;;;;4996141;28;20018;-88
2023/10/03 12:42:50;;;;;;;29.65;3.80;;;20.10;92.00;;;;;;4994416;28;20124;-88
2023/10/03 12:45:20;;;;;;;26.77;4.03;;;20.10;92.10;;;;;;5013075;28;20100;-88
2023/10/03 12:47:53;;;;;;;28.65;3.42;;;20.30;92.10;;;;;;5011911;28;20037;-87
2023/10/03 12:50:27;;;;;;;32.15;4.07;;;20.40;92.10;;;;;;5011450;28;20384;-88
2023/10/03 12:52:54;;;;;;;22.05;3.65;;;20.50;92.20;;;;;;5011304;28;20034;-88
2023/10/03 12:55:20;;;;;;;32.08;4.18;;;20.60;92.20;;;;;;5011698;28;20076;-88
2023/10/03 12:57:48;;;;;;;22.60;3.40;;;20.60;92.20;;;;;;5012013;28;20022;-88
2023/10/03 13:00:23;;;;;;;18.00;3.55;;;20.60;92.20;;;;;;5012901;28;20073;-88
2023/10/03 13:02:49;;;;;;;16.58;3.95;;;20.80;92.40;;;;;;5011367;28;20030;-88
2023/10/03 13:05:16;;;;;;;12.95;3.17;;;20.80;92.40;;;;;;5011679;28;20053;-89
2023/10/03 13:07:48;;;;;;;18.35;3.65;;;20.90;92.30;;;;;;5011638;28;20048;-88
2023/10/03 13:10:14;;;;;;;17.98;3.55;;;20.90;92.40;;;;;;5011313;28;20030;-88
2023/10/03 13:12:41;;;;;;;14.05;3.05;;;21.00;92.30;;;;;;5011463;28;20515;-89
2023/10/03 13:15:10;;;;;;;10.70;3.05;;;21.00;92.40;;;;;;5011482;28;20476;-88
2023/10/03 13:17:37;;;;;;;17.10;3.78;;;21.00;92.50;;;;;;5011070;28;20069;-88
2023/10/03 13:20:04;;;;;;;13.48;3.40;;;21.10;92.50;;;;;;5012897;28;20046;-88
2023/10/03 13:22:29;;;;;;;18.60;3.65;;;21.10;92.50;;;;;;5012775;28;20054;-88